sensor_id;sensor_type;location;lat;lon;timestamp;pressure;altitude;pressure_sealevel;temperature;humidity
39177;BME280;24904;52.208;21.192;2023-05-01T00:00:21;101126.54;;;4.83;58.75
39177;BME280;24904;52.208;21.192;2023-05-01T00:05:24;101130.75;;;4.77;58.89
39177;BME280;24904;52.208;21.192;2023-05-01T00:10:27;101127.13;;;4.72;58.95
39177;BME280;24904;52.208;21.192;2023-05-01T00:15:31;101128.14;;;4.64;59.20
39177;BME280;24904;52.208;21.192;2023-05-01T00:20:34;101123.77;;;4.55;59.54
39177;BME280;24904;52.208;21.192;2023-05-01T00:25:37;101123.10;;;4.48;59.76
39177;BME280;24904;52.208;21.192;2023-05-01T00:30:40;101129.79;;;4.46;59.75
39177;BME280;24904;52.208;21.192;2023-05-01T00:35:44;101134.74;;;4.40;60.08
39177;BME280;24904;52.208;21.192;2023-05-01T00:40:47;101137.46;;;4.31;60.24
39177;BME280;24904;52.208;21.192;2023-05-01T00:45:50;101137.33;;;4.22;60.40
39177;BME280;24904;52.208;21.192;2023-05-01T00:50:54;101135.45;;;4.21;60.67
39177;BME280;24904;52.208;21.192;2023-05-01T00:55:58;101141.65;;;4.16;60.84
39177;BME280;24904;52.208;21.192;2023-05-01T01:01:01;101141.80;;;4.11;60.70
39177;BME280;24904;52.208;21.192;2023-05-01T01:06:14;101145.86;;;4.00;60.85
39177;BME280;24904;52.208;21.192;2023-05-01T01:11:22;101139.81;;;3.95;61.24
39177;BME280;24904;52.208;21.192;2023-05-01T01:16:34;101138.46;;;3.92;61.24
39177;BME280;24904;52.208;21.192;2023-05-01T01:21:42;101141.13;;;3.85;61.61
39177;BME280;24904;52.208;21.192;2023-05-01T01:32:54;101146.86;;;3.78;61.55
39177;BME280;24904;52.208;21.192;2023-05-01T01:38:01;101147.45;;;3.70;61.79
39177;BME280;24904;52.208;21.192;2023-05-01T01:43:07;101145.77;;;3.59;62.26
39177;BME280;24904;52.208;21.192;2023-05-01T01:48:14;101146.84;;;3.57;62.19
39177;BME280;24904;52.208;21.192;2023-05-01T01:53:20;101151.45;;;3.49;62.12
39177;BME280;24904;52.208;21.192;2023-05-01T01:58:25;101153.75;;;3.37;62.43
39177;BME280;24904;52.208;21.192;2023-05-01T02:03:30;101154.35;;;3.32;62.56
39177;BME280;24904;52.208;21.192;2023-05-01T02:08:35;101156.41;;;3.28;62.51
39177;BME280;24904;52.208;21.192;2023-05-01T02:13:40;101157.77;;;3.26;62.71
39177;BME280;24904;52.208;21.192;2023-05-01T02:18:45;101152.86;;;3.13;62.79
39177;BME280;24904;52.208;21.192;2023-05-01T02:23:49;101160.45;;;2.95;62.74
39177;BME280;24904;52.208;21.192;2023-05-01T02:28:52;101166.66;;;2.90;63.15
39177;BME280;24904;52.208;21.192;2023-05-01T02:33:55;101166.27;;;2.89;62.78
39177;BME280;24904;52.208;21.192;2023-05-01T02:38:59;101165.40;;;2.85;62.69
39177;BME280;24904;52.208;21.192;2023-05-01T02:44:04;101165.38;;;2.78;62.98
39177;BME280;24904;52.208;21.192;2023-05-01T02:49:08;101165.70;;;2.80;63.07
39177;BME280;24904;52.208;21.192;2023-05-01T02:54:12;101161.98;;;2.67;62.81
39177;BME280;24904;52.208;21.192;2023-05-01T02:59:15;101160.08;;;2.62;63.14
39177;BME280;24904;52.208;21.192;2023-05-01T03:04:19;101162.06;;;2.58;62.99
39177;BME280;24904;52.208;21.192;2023-05-01T03:09:24;101163.27;;;2.51;63.34
39177;BME280;24904;52.208;21.192;2023-05-01T03:14:29;101166.38;;;2.46;63.29
39177;BME280;24904;52.208;21.192;2023-05-01T03:19:33;101161.80;;;2.38;63.46
39177;BME280;24904;52.208;21.192;2023-05-01T03:24:40;101158.63;;;2.37;63.74
39177;BME280;24904;52.208;21.192;2023-05-01T03:29:44;101158.88;;;2.35;63.74
39177;BME280;24904;52.208;21.192;2023-05-01T03:34:49;101159.91;;;2.35;63.87
39177;BME280;24904;52.208;21.192;2023-05-01T03:39:54;101160.40;;;2.33;64.08
39177;BME280;24904;52.208;21.192;2023-05-01T03:53:39;101155.73;;;2.33;64.25
39177;BME280;24904;52.208;21.192;2023-05-01T03:58:45;101159.38;;;2.32;64.66
39177;BME280;24904;52.208;21.192;2023-05-01T04:03:49;101154.41;;;2.39;64.99
39177;BME280;24904;52.208;21.192;2023-05-01T04:08:52;101151.08;;;2.46;65.21
39177;BME280;24904;52.208;21.192;2023-05-01T04:13:55;101150.52;;;2.52;65.32
39177;BME280;24904;52.208;21.192;2023-05-01T04:18:58;101152.48;;;2.60;65.55
39177;BME280;24904;52.208;21.192;2023-05-01T04:24:01;101151.83;;;2.78;65.86
39177;BME280;24904;52.208;21.192;2023-05-01T04:29:05;101148.98;;;2.92;66.07
39177;BME280;24904;52.208;21.192;2023-05-01T04:34:08;101144.44;;;3.10;66.19
39177;BME280;24904;52.208;21.192;2023-05-01T04:39:12;101149.77;;;3.23;66.16
39177;BME280;24904;52.208;21.192;2023-05-01T04:44:15;101147.02;;;3.39;66.27
39177;BME280;24904;52.208;21.192;2023-05-01T04:49:19;101146.80;;;3.59;66.60
39177;BME280;24904;52.208;21.192;2023-05-01T04:54:23;101146.11;;;3.84;66.48
39177;BME280;24904;52.208;21.192;2023-05-01T04:59:26;101147.91;;;4.06;66.34
39177;BME280;24904;52.208;21.192;2023-05-01T05:04:30;101146.94;;;4.26;66.72
39177;BME280;24904;52.208;21.192;2023-05-01T05:09:35;101152.58;;;4.50;66.34
39177;BME280;24904;52.208;21.192;2023-05-01T05:14:38;101149.90;;;4.79;66.61
39177;BME280;24904;52.208;21.192;2023-05-01T05:19:41;101154.13;;;5.08;66.22
39177;BME280;24904;52.208;21.192;2023-05-01T05:24:45;101145.26;;;5.37;65.07
39177;BME280;24904;52.208;21.192;2023-05-01T05:29:50;101144.56;;;5.71;64.42
39177;BME280;24904;52.208;21.192;2023-05-01T05:34:53;101149.41;;;6.02;63.26
39177;BME280;24904;52.208;21.192;2023-05-01T05:39:56;101147.46;;;6.34;62.80
39177;BME280;24904;52.208;21.192;2023-05-01T05:45:00;101148.39;;;6.66;60.90
39177;BME280;24904;52.208;21.192;2023-05-01T05:50:04;101146.34;;;6.91;59.30
39177;BME280;24904;52.208;21.192;2023-05-01T05:55:09;101145.78;;;7.18;58.37
39177;BME280;24904;52.208;21.192;2023-05-01T06:00:14;101143.45;;;7.43;57.35
39177;BME280;24904;52.208;21.192;2023-05-01T06:05:20;101139.33;;;7.70;56.35
39177;BME280;24904;52.208;21.192;2023-05-01T06:10:23;101143.27;;;7.92;55.69
39177;BME280;24904;52.208;21.192;2023-05-01T06:15:26;101145.30;;;8.15;54.60
39177;BME280;24904;52.208;21.192;2023-05-01T06:20:30;101151.75;;;8.35;53.27
39177;BME280;24904;52.208;21.192;2023-05-01T06:25:33;101158.93;;;8.56;52.68
39177;BME280;24904;52.208;21.192;2023-05-01T06:30:36;101159.21;;;8.75;51.64
39177;BME280;24904;52.208;21.192;2023-05-01T06:35:40;101154.13;;;8.93;51.13
39177;BME280;24904;52.208;21.192;2023-05-01T06:40:43;101152.02;;;9.14;50.63
39177;BME280;24904;52.208;21.192;2023-05-01T06:45:48;101147.79;;;9.36;50.00
39177;BME280;24904;52.208;21.192;2023-05-01T06:50:51;101154.65;;;9.54;49.88
39177;BME280;24904;52.208;21.192;2023-05-01T06:55:55;101151.14;;;9.78;49.14
39177;BME280;24904;52.208;21.192;2023-05-01T07:00:58;101152.12;;;10.00;48.79
39177;BME280;24904;52.208;21.192;2023-05-01T07:06:01;101145.53;;;10.21;47.69
39177;BME280;24904;52.208;21.192;2023-05-01T07:11:04;101141.33;;;10.44;47.85
39177;BME280;24904;52.208;21.192;2023-05-01T07:16:08;101142.27;;;10.67;47.37
39177;BME280;24904;52.208;21.192;2023-05-01T07:21:11;101140.80;;;10.93;47.31
39177;BME280;24904;52.208;21.192;2023-05-01T07:26:15;101136.94;;;11.14;46.40
39177;BME280;24904;52.208;21.192;2023-05-01T07:31:17;101136.38;;;11.33;46.05
39177;BME280;24904;52.208;21.192;2023-05-01T07:36:20;101139.43;;;11.48;45.25
39177;BME280;24904;52.208;21.192;2023-05-01T07:41:24;101130.86;;;11.68;45.56
39177;BME280;24904;52.208;21.192;2023-05-01T07:46:26;101128.42;;;11.97;45.51
39177;BME280;24904;52.208;21.192;2023-05-01T07:51:30;101128.44;;;12.21;44.91
39177;BME280;24904;52.208;21.192;2023-05-01T07:56:34;101126.45;;;12.40;44.82
39177;BME280;24904;52.208;21.192;2023-05-01T08:01:37;101124.20;;;12.56;44.43
39177;BME280;24904;52.208;21.192;2023-05-01T08:06:40;101122.08;;;12.67;44.05
39177;BME280;24904;52.208;21.192;2023-05-01T08:11:43;101123.48;;;12.83;43.37
39177;BME280;24904;52.208;21.192;2023-05-01T08:16:46;101122.55;;;12.84;43.06
39177;BME280;24904;52.208;21.192;2023-05-01T08:21:53;101126.52;;;12.99;43.05
39177;BME280;24904;52.208;21.192;2023-05-01T08:26:57;101127.10;;;13.12;42.40
39177;BME280;24904;52.208;21.192;2023-05-01T08:32:00;101119.73;;;13.24;42.34
39177;BME280;24904;52.208;21.192;2023-05-01T08:37:03;101126.41;;;13.31;42.10
39177;BME280;24904;52.208;21.192;2023-05-01T08:42:06;101126.34;;;13.38;41.66
39177;BME280;24904;52.208;21.192;2023-05-01T08:47:15;101125.45;;;13.43;41.43
39177;BME280;24904;52.208;21.192;2023-05-01T08:52:20;101125.71;;;13.45;40.94
39177;BME280;24904;52.208;21.192;2023-05-01T08:57:24;101124.38;;;13.53;41.69
39177;BME280;24904;52.208;21.192;2023-05-01T09:02:28;101119.95;;;13.67;41.14
39177;BME280;24904;52.208;21.192;2023-05-01T09:07:32;101120.52;;;13.83;40.94
39177;BME280;24904;52.208;21.192;2023-05-01T09:12:36;101122.16;;;13.97;40.60
39177;BME280;24904;52.208;21.192;2023-05-01T09:17:42;101116.23;;;14.06;40.10
39177;BME280;24904;52.208;21.192;2023-05-01T09:22:46;101115.60;;;14.14;39.55
39177;BME280;24904;52.208;21.192;2023-05-01T09:27:49;101112.59;;;14.12;39.50
39177;BME280;24904;52.208;21.192;2023-05-01T09:33:04;101105.47;;;14.31;39.11
39177;BME280;24904;52.208;21.192;2023-05-01T09:38:07;101098.76;;;14.41;38.87
39177;BME280;24904;52.208;21.192;2023-05-01T09:43:10;101092.20;;;14.40;38.44
39177;BME280;24904;52.208;21.192;2023-05-01T09:48:13;101086.60;;;14.32;37.70
39177;BME280;24904;52.208;21.192;2023-05-01T09:53:16;101083.96;;;14.36;37.80
39177;BME280;24904;52.208;21.192;2023-05-01T09:58:27;101078.48;;;14.42;36.94
39177;BME280;24904;52.208;21.192;2023-05-01T10:03:30;101077.34;;;14.57;36.28
39177;BME280;24904;52.208;21.192;2023-05-01T10:08:47;101074.83;;;14.74;36.98
39177;BME280;24904;52.208;21.192;2023-05-01T10:14:06;101068.24;;;14.85;37.03
39177;BME280;24904;52.208;21.192;2023-05-01T10:19:11;101061.90;;;14.97;36.52
39177;BME280;24904;52.208;21.192;2023-05-01T10:24:15;101056.46;;;15.01;35.85
39177;BME280;24904;52.208;21.192;2023-05-01T10:29:18;101055.55;;;15.10;36.28
39177;BME280;24904;52.208;21.192;2023-05-01T10:34:23;101048.80;;;15.21;36.55
39177;BME280;24904;52.208;21.192;2023-05-01T10:39:30;101044.77;;;15.27;35.74
39177;BME280;24904;52.208;21.192;2023-05-01T10:44:34;101036.00;;;15.29;35.77
39177;BME280;24904;52.208;21.192;2023-05-01T10:50:03;101025.74;;;15.36;35.13
39177;BME280;24904;52.208;21.192;2023-05-01T10:55:31;101028.84;;;15.38;35.90
39177;BME280;24904;52.208;21.192;2023-05-01T11:00:34;101025.05;;;15.45;35.30
39177;BME280;24904;52.208;21.192;2023-05-01T11:06:04;101016.27;;;15.49;35.53
39177;BME280;24904;52.208;21.192;2023-05-01T11:16:46;101000.67;;;15.71;35.32
39177;BME280;24904;52.208;21.192;2023-05-01T11:21:50;100993.30;;;15.88;35.55
39177;BME280;24904;52.208;21.192;2023-05-01T11:26:54;100988.39;;;15.96;34.99
39177;BME280;24904;52.208;21.192;2023-05-01T11:31:58;100982.92;;;16.00;35.24
39177;BME280;24904;52.208;21.192;2023-05-01T11:37:01;100978.16;;;16.03;34.87
39177;BME280;24904;52.208;21.192;2023-05-01T11:42:07;100968.11;;;16.01;35.03
39177;BME280;24904;52.208;21.192;2023-05-01T11:47:10;100965.19;;;16.07;34.62
39177;BME280;24904;52.208;21.192;2023-05-01T11:52:14;100961.61;;;16.14;34.24
39177;BME280;24904;52.208;21.192;2023-05-01T11:57:17;100956.30;;;16.20;34.52
39177;BME280;24904;52.208;21.192;2023-05-01T12:02:21;100951.23;;;16.24;34.01
39177;BME280;24904;52.208;21.192;2023-05-01T12:07:24;100948.92;;;16.17;32.90
39177;BME280;24904;52.208;21.192;2023-05-01T12:12:27;100950.05;;;16.17;33.32
39177;BME280;24904;52.208;21.192;2023-05-01T12:17:31;100947.13;;;16.12;33.48
39177;BME280;24904;52.208;21.192;2023-05-01T12:22:34;100943.95;;;16.14;32.77
39177;BME280;24904;52.208;21.192;2023-05-01T12:27:43;100933.34;;;16.15;32.42
39177;BME280;24904;52.208;21.192;2023-05-01T12:32:45;100926.23;;;16.11;32.02
39177;BME280;24904;52.208;21.192;2023-05-01T12:37:48;100917.83;;;16.14;32.40
39177;BME280;24904;52.208;21.192;2023-05-01T12:42:55;100917.59;;;16.18;32.26
39177;BME280;24904;52.208;21.192;2023-05-01T12:47:59;100912.76;;;16.22;32.50
39177;BME280;24904;52.208;21.192;2023-05-01T12:53:02;100908.08;;;16.24;32.59
39177;BME280;24904;52.208;21.192;2023-05-01T12:58:06;100899.75;;;16.26;32.62
39177;BME280;24904;52.208;21.192;2023-05-01T13:03:09;100885.79;;;16.30;32.53
39177;BME280;24904;52.208;21.192;2023-05-01T13:08:12;100884.12;;;16.36;32.48
39177;BME280;24904;52.208;21.192;2023-05-01T13:13:23;100878.65;;;16.38;32.31
39177;BME280;24904;52.208;21.192;2023-05-01T13:18:27;100877.34;;;16.42;32.58
39177;BME280;24904;52.208;21.192;2023-05-01T13:23:30;100865.72;;;16.40;32.13
39177;BME280;24904;52.208;21.192;2023-05-01T13:28:35;100864.45;;;16.40;32.10
39177;BME280;24904;52.208;21.192;2023-05-01T13:33:40;100860.33;;;16.42;31.99
39177;BME280;24904;52.208;21.192;2023-05-01T13:38:46;100849.55;;;16.42;31.92
39177;BME280;24904;52.208;21.192;2023-05-01T13:43:52;100847.73;;;16.41;31.82
39177;BME280;24904;52.208;21.192;2023-05-01T13:48:59;100846.13;;;16.44;31.88
39177;BME280;24904;52.208;21.192;2023-05-01T13:54:05;100839.88;;;16.42;31.40
39177;BME280;24904;52.208;21.192;2023-05-01T13:59:09;100836.98;;;16.40;31.48
39177;BME280;24904;52.208;21.192;2023-05-01T14:04:16;100826.13;;;16.39;31.44
39177;BME280;24904;52.208;21.192;2023-05-01T14:09:22;100820.69;;;16.36;31.34
39177;BME280;24904;52.208;21.192;2023-05-01T14:14:25;100820.68;;;16.38;31.74
39177;BME280;24904;52.208;21.192;2023-05-01T14:19:28;100812.83;;;16.39;31.79
39177;BME280;24904;52.208;21.192;2023-05-01T14:24:33;100809.29;;;16.37;31.95
39177;BME280;24904;52.208;21.192;2023-05-01T14:29:41;100802.79;;;16.37;32.17
39177;BME280;24904;52.208;21.192;2023-05-01T14:34:45;100796.59;;;16.41;31.93
39177;BME280;24904;52.208;21.192;2023-05-01T14:39:48;100791.27;;;16.42;31.64
39177;BME280;24904;52.208;21.192;2023-05-01T14:44:51;100793.87;;;16.43;31.88
39177;BME280;24904;52.208;21.192;2023-05-01T14:49:54;100784.15;;;16.41;31.82
39177;BME280;24904;52.208;21.192;2023-05-01T14:54:57;100778.48;;;16.37;32.00
39177;BME280;24904;52.208;21.192;2023-05-01T15:00:00;100774.28;;;16.37;32.02
39177;BME280;24904;52.208;21.192;2023-05-01T15:10:29;100769.90;;;16.41;32.63
39177;BME280;24904;52.208;21.192;2023-05-01T15:15:33;100773.70;;;16.40;32.38
39177;BME280;24904;52.208;21.192;2023-05-01T15:20:36;100767.91;;;16.41;32.17
39177;BME280;24904;52.208;21.192;2023-05-01T15:25:39;100759.53;;;16.40;32.12
39177;BME280;24904;52.208;21.192;2023-05-01T15:30:45;100755.04;;;16.38;31.87
39177;BME280;24904;52.208;21.192;2023-05-01T15:35:48;100748.48;;;16.36;31.53
39177;BME280;24904;52.208;21.192;2023-05-01T15:40:53;100742.73;;;16.32;30.97
39177;BME280;24904;52.208;21.192;2023-05-01T15:45:57;100733.79;;;16.28;30.89
39177;BME280;24904;52.208;21.192;2023-05-01T15:51:00;100731.27;;;16.27;31.29
39177;BME280;24904;52.208;21.192;2023-05-01T15:56:06;100721.70;;;16.25;31.22
39177;BME280;24904;52.208;21.192;2023-05-01T16:01:13;100717.82;;;16.25;30.88
39177;BME280;24904;52.208;21.192;2023-05-01T16:06:16;100722.83;;;16.23;31.12
39177;BME280;24904;52.208;21.192;2023-05-01T16:11:19;100727.04;;;16.22;31.48
39177;BME280;24904;52.208;21.192;2023-05-01T16:16:24;100723.16;;;16.21;31.55
39177;BME280;24904;52.208;21.192;2023-05-01T16:21:28;100712.80;;;16.18;31.77
39177;BME280;24904;52.208;21.192;2023-05-01T16:33:33;100718.02;;;16.20;32.11
39177;BME280;24904;52.208;21.192;2023-05-01T16:38:37;100711.92;;;16.18;32.22
39177;BME280;24904;52.208;21.192;2023-05-01T16:43:40;100709.71;;;16.19;32.32
39177;BME280;24904;52.208;21.192;2023-05-01T16:48:43;100699.19;;;16.19;32.59
39177;BME280;24904;52.208;21.192;2023-05-01T16:53:46;100698.79;;;16.19;32.71
39177;BME280;24904;52.208;21.192;2023-05-01T16:58:49;100695.98;;;16.24;33.04
39177;BME280;24904;52.208;21.192;2023-05-01T17:03:53;100693.33;;;16.29;32.93
39177;BME280;24904;52.208;21.192;2023-05-01T17:08:56;100690.55;;;16.19;32.90
39177;BME280;24904;52.208;21.192;2023-05-01T17:13:59;100694.03;;;16.08;32.93
39177;BME280;24904;52.208;21.192;2023-05-01T17:19:02;100686.66;;;15.95;33.10
39177;BME280;24904;52.208;21.192;2023-05-01T17:24:10;100684.52;;;15.82;33.20
39177;BME280;24904;52.208;21.192;2023-05-01T17:29:14;100688.78;;;15.69;33.54
39177;BME280;24904;52.208;21.192;2023-05-01T17:34:17;100690.48;;;15.56;33.64
39177;BME280;24904;52.208;21.192;2023-05-01T17:39:20;100691.23;;;15.41;33.87
39177;BME280;24904;52.208;21.192;2023-05-01T17:44:23;100691.59;;;15.26;34.26
39177;BME280;24904;52.208;21.192;2023-05-01T17:49:26;100684.47;;;15.05;34.60
39177;BME280;24904;52.208;21.192;2023-05-01T17:54:29;100685.92;;;14.88;34.65
39177;BME280;24904;52.208;21.192;2023-05-01T17:59:33;100690.20;;;14.69;35.16
39177;BME280;24904;52.208;21.192;2023-05-01T18:04:36;100694.47;;;14.49;35.51
39177;BME280;24904;52.208;21.192;2023-05-01T18:09:40;100692.38;;;14.28;35.95
39177;BME280;24904;52.208;21.192;2023-05-01T18:14:43;100694.63;;;14.04;36.45
39177;BME280;24904;52.208;21.192;2023-05-01T18:19:46;100695.27;;;13.81;37.02
39177;BME280;24904;52.208;21.192;2023-05-01T18:24:49;100697.95;;;13.59;37.34
39177;BME280;24904;52.208;21.192;2023-05-01T18:29:53;100699.44;;;13.39;37.61
39177;BME280;24904;52.208;21.192;2023-05-01T18:34:56;100703.05;;;13.22;37.83
39177;BME280;24904;52.208;21.192;2023-05-01T18:39:59;100701.29;;;13.08;38.17
39177;BME280;24904;52.208;21.192;2023-05-01T18:45:02;100696.47;;;12.93;38.28
39177;BME280;24904;52.208;21.192;2023-05-01T18:50:08;100697.24;;;12.81;38.54
39177;BME280;24904;52.208;21.192;2023-05-01T18:55:11;100695.95;;;12.66;38.81
39177;BME280;24904;52.208;21.192;2023-05-01T19:00:15;100702.31;;;12.54;38.99
39177;BME280;24904;52.208;21.192;2023-05-01T19:05:19;100704.20;;;12.45;39.16
39177;BME280;24904;52.208;21.192;2023-05-01T19:10:23;100702.35;;;12.39;39.42
39177;BME280;24904;52.208;21.192;2023-05-01T19:15:26;100698.55;;;12.38;39.81
39177;BME280;24904;52.208;21.192;2023-05-01T19:20:29;100690.95;;;12.33;39.91
39177;BME280;24904;52.208;21.192;2023-05-01T19:25:32;100685.96;;;12.29;40.27
39177;BME280;24904;52.208;21.192;2023-05-01T19:30:35;100683.63;;;12.24;40.51
39177;BME280;24904;52.208;21.192;2023-05-01T19:35:38;100678.02;;;12.21;40.82
39177;BME280;24904;52.208;21.192;2023-05-01T19:40:41;100668.41;;;12.18;40.79
39177;BME280;24904;52.208;21.192;2023-05-01T19:45:46;100661.11;;;12.12;40.91
39177;BME280;24904;52.208;21.192;2023-05-01T19:50:49;100660.89;;;12.07;41.08
39177;BME280;24904;52.208;21.192;2023-05-01T19:55:53;100660.17;;;12.05;41.14
39177;BME280;24904;52.208;21.192;2023-05-01T20:00:55;100658.90;;;12.03;41.23
39177;BME280;24904;52.208;21.192;2023-05-01T20:06:00;100653.23;;;12.02;41.26
39177;BME280;24904;52.208;21.192;2023-05-01T20:11:04;100650.93;;;11.93;41.33
39177;BME280;24904;52.208;21.192;2023-05-01T20:16:08;100647.08;;;11.84;41.42
39177;BME280;24904;52.208;21.192;2023-05-01T20:21:11;100649.38;;;11.79;41.48
39177;BME280;24904;52.208;21.192;2023-05-01T20:26:14;100646.15;;;11.74;41.47
39177;BME280;24904;52.208;21.192;2023-05-01T20:31:18;100645.68;;;11.67;41.56
39177;BME280;24904;52.208;21.192;2023-05-01T20:36:22;100647.05;;;11.63;41.59
39177;BME280;24904;52.208;21.192;2023-05-01T20:41:25;100649.34;;;11.56;41.61
39177;BME280;24904;52.208;21.192;2023-05-01T20:46:29;100649.61;;;11.45;41.68
39177;BME280;24904;52.208;21.192;2023-05-01T20:51:32;100645.18;;;11.37;41.65
39177;BME280;24904;52.208;21.192;2023-05-01T20:56:35;100644.30;;;11.29;41.76
39177;BME280;24904;52.208;21.192;2023-05-01T21:01:38;100646.14;;;11.19;41.97
39177;BME280;24904;52.208;21.192;2023-05-01T21:06:41;100652.30;;;11.11;42.13
39177;BME280;24904;52.208;21.192;2023-05-01T21:11:44;100649.80;;;11.06;42.36
39177;BME280;24904;52.208;21.192;2023-05-01T21:16:47;100648.83;;;10.97;42.52
39177;BME280;24904;52.208;21.192;2023-05-01T21:21:50;100648.16;;;10.88;42.65
39177;BME280;24904;52.208;21.192;2023-05-01T21:26:54;100649.17;;;10.83;42.91
39177;BME280;24904;52.208;21.192;2023-05-01T21:31:57;100647.20;;;10.77;43.03
39177;BME280;24904;52.208;21.192;2023-05-01T21:37:02;100650.43;;;10.72;43.25
39177;BME280;24904;52.208;21.192;2023-05-01T21:42:05;100649.70;;;10.71;43.53
39177;BME280;24904;52.208;21.192;2023-05-01T21:47:08;100641.70;;;10.66;43.75
39177;BME280;24904;52.208;21.192;2023-05-01T21:52:12;100640.31;;;10.62;44.00
39177;BME280;24904;52.208;21.192;2023-05-01T21:57:16;100647.70;;;10.58;44.00
39177;BME280;24904;52.208;21.192;2023-05-01T22:02:19;100647.14;;;10.53;44.05
39177;BME280;24904;52.208;21.192;2023-05-01T22:07:22;100642.11;;;10.46;44.41
39177;BME280;24904;52.208;21.192;2023-05-01T22:12:26;100638.77;;;10.39;44.53
39177;BME280;24904;52.208;21.192;2023-05-01T22:17:29;100636.05;;;10.30;44.88
39177;BME280;24904;52.208;21.192;2023-05-01T22:22:32;100630.38;;;10.21;45.14
39177;BME280;24904;52.208;21.192;2023-05-01T22:27:35;100629.69;;;10.13;45.23
39177;BME280;24904;52.208;21.192;2023-05-01T22:32:38;100629.27;;;10.06;45.42
39177;BME280;24904;52.208;21.192;2023-05-01T22:37:41;100633.00;;;9.96;45.65
39177;BME280;24904;52.208;21.192;2023-05-01T22:42:44;100630.95;;;9.87;45.84
39177;BME280;24904;52.208;21.192;2023-05-01T22:47:48;100630.05;;;9.76;46.23
39177;BME280;24904;52.208;21.192;2023-05-01T22:52:51;100619.65;;;9.60;46.52
39177;BME280;24904;52.208;21.192;2023-05-01T22:57:54;100617.33;;;9.49;46.78
39177;BME280;24904;52.208;21.192;2023-05-01T23:02:58;100609.54;;;9.40;47.02
39177;BME280;24904;52.208;21.192;2023-05-01T23:08:01;100611.73;;;9.35;47.17
39177;BME280;24904;52.208;21.192;2023-05-01T23:13:05;100610.14;;;9.34;47.35
39177;BME280;24904;52.208;21.192;2023-05-01T23:18:10;100603.54;;;9.26;47.83
39177;BME280;24904;52.208;21.192;2023-05-01T23:23:14;100600.16;;;9.20;47.90
39177;BME280;24904;52.208;21.192;2023-05-01T23:28:22;100594.58;;;9.12;48.14
39177;BME280;24904;52.208;21.192;2023-05-01T23:33:29;100593.95;;;9.04;48.14
39177;BME280;24904;52.208;21.192;2023-05-01T23:38:35;100593.73;;;8.98;48.60
39177;BME280;24904;52.208;21.192;2023-05-01T23:43:38;100590.06;;;8.94;48.72
39177;BME280;24904;52.208;21.192;2023-05-01T23:48:42;100584.73;;;8.89;48.87
39177;BME280;24904;52.208;21.192;2023-05-01T23:53:45;100586.35;;;8.88;48.89
39177;BME280;24904;52.208;21.192;2023-05-01T23:58:48;100581.55;;;8.84;49.29
